events-overview

Kinetic Half

 

Overall Women

Lake Anna State Park - Spotsylvania, VA 5/12/2012 07:00AM

** Results are for the private use of participants and are the Intellectual Property of Set Up Events. Unauthorized use of these results is prohibited.

Place Bib Co Ag S NAME city/state DQ Rank SWIM Rank T1 Rank BIKE Rank T2 Rank RUN PENALTY TIME DQ
1154 33FKim SchwabenbauerKnox PA 900:31:291200:02:18302:29:47300:01:00101:29:12 04:33:45 
2161 34FAmanda JuratovicAlexandria VA 200:27:311700:02:26402:31:253400:01:43201:35:51 04:38:54 
384 29FKatie ThomasStephens City VA 100:26:373700:02:55502:32:172700:01:38501:41:02 04:44:27 
4158 34FGeorgeanne FayrweatherAnnandale VA 300:29:171600:02:251202:41:03400:01:01401:37:19 04:51:03 
5226 36FDanielle BakerDurham NC 1800:33:02600:02:101002:40:11200:00:55301:36:31 04:52:46 
6322 40FKasha SchoolmeesterFairfax VA 5600:38:232200:02:33802:37:141100:01:23701:42:47 05:02:17 
775 27FDawn RiebelingArlington VA 1900:33:045200:03:141702:43:084000:01:46901:43:54 05:05:03 
8140 31FLauren VowlerNew Cumberland PA 5800:38:313500:02:511302:42:194100:01:46801:43:09 05:08:34 
941 23FRebecca WardellLawrenceville NJ 4500:37:061500:02:221802:43:481400:01:251001:44:57 05:09:37 
1082 29FMindy KoWoodbridge VA 400:29:39200:02:023602:53:201500:01:291101:45:08 05:11:35 
11143 32FLaura ChipkinArlington VA 3000:35:094500:03:072102:46:215500:02:031301:46:11 05:12:48 
12473 54FDebi BernardesKing George VA 1100:31:52100:01:583002:51:41600:01:15601:42:1300:04:0005:12:58 
13141 31FMacKenzie YatesWashington DC 6100:38:462000:02:33902:39:322500:01:351401:47:4200:04:0005:14:07 
14339 43FAmy AdcockAlexandria VA 1200:32:022300:02:392002:45:322900:01:402401:52:57 05:14:47 
15347 43FDarcy YtterdahlOakton VA 1000:31:332700:02:411902:44:00800:01:183201:55:57 05:15:27 
16474 54FAnn CutrellLigonier PA 500:30:002100:02:331602:43:013500:01:453601:58:46 05:16:02 
17330 41FMelanie ShepherdsonWashington DC 3400:36:23800:02:111402:42:414500:01:543101:54:46 05:17:53 
18414 46FDiana LohmeyerVienna VA 1700:33:011400:02:222202:46:362200:01:333001:54:44 05:18:14 
19343 43FLaura GreesonAlexandria VA 4300:36:591000:02:143102:52:17500:01:141601:48:05 05:20:47 
20241 39FJennifer JonesAshburn VA 2600:33:583400:02:492602:48:343700:01:452901:54:14 05:21:18 
21139 31FJulie ThorntonMoseley VA 800:31:241100:02:163902:55:253000:01:401901:51:03 05:21:45 
22420 47FBarbara WedelCary NC 5500:38:0811700:04:56602:34:258100:02:324802:02:10 05:22:09 
23237 38FDana MaulFalls Church VA 8900:41:162800:02:442902:50:434200:01:461701:50:04 05:26:32 
2470 25FHolli FinnerenWashington DC 9000:41:19900:02:131502:42:56700:01:183901:59:42 05:27:26 
25328 41FTjede McVeyLandenberg PA 2200:33:18400:02:074102:55:55900:01:192701:53:3800:04:0005:30:15 
26320 40FKathleen BunchHerndon VA 2400:33:312400:02:402702:48:496700:02:144202:00:4500:04:0005:31:56 
2781 29FMargaret HenryRockville MD 1300:32:133800:02:584202:55:578900:02:393501:58:28 05:32:13 
28334 42FValerie ChristoffLigonier PA 9400:41:504100:03:023302:52:402600:01:372501:53:21 05:32:27 
29234 37FAndrea WuebkerWashington DC 2800:35:0710400:04:321102:40:367600:02:246302:09:52 05:32:29 
30464 50FJoanna SchmickelArlington VA 7300:39:3313700:05:453702:53:524800:01:562301:52:44 05:33:48 
PlaceBibCoAgSNAMEcity/stateDQRankSWIMRankT1RankBIKERankT2RankRUNPENALTYTIMEDQ
31136 31FMarcie BasileMacungie PA 4900:37:3210900:04:435803:02:225900:02:061501:48:05 05:34:45 
32351 44FJulie PaddisonDurham NC 4400:36:592600:02:412802:50:397700:02:265302:03:48 05:36:31 
33134 30FVictoria CurroVoorhees NJ 1500:32:581300:02:215903:02:3413500:05:462601:53:36 05:37:12 
34410 45FLynn RatnavaleBethesda MD 2700:35:028600:04:106603:03:487200:02:202801:53:58 05:39:16 
35350 44FTracy KillmerSterling VA 5900:38:355600:03:242502:48:301300:01:245902:08:14 05:40:05 
36232 37FLeslie KasmirArlington VA 13200:47:226800:03:405102:59:413900:01:461201:45:2100:04:0005:41:49 
37325 41FMichelle JoubranWashington DC 2300:33:306100:03:342302:46:406200:02:076902:12:1400:04:0005:42:03 
38227 36FCarol CohenArlington VA 8600:40:515400:03:195203:00:252300:01:343301:56:02 05:42:08 
39145 32FSarah KarpinskiWashington DC 3900:36:454300:03:055002:59:355200:02:004602:01:47 05:43:10 
4074 26FKate TusseyFalls Church VA 5100:37:34700:02:116003:03:063100:01:414001:59:54 05:44:25 
4119MF30FJessica TomazicLorain OH 11600:44:473300:02:493202:52:306900:02:174902:02:12 05:44:34 
42135 31FAdriana AndersonWoodbridge VA 11300:43:436700:03:393402:52:5410300:02:534702:01:56 05:45:02 
43155 33FCindy WeldeleDevon PA 3100:35:182500:02:407303:05:544400:01:543801:59:21 05:45:06 
44228 36FJackie McCarthyArlington VA 7200:39:328000:03:564902:59:133300:01:434502:01:27 05:45:50 
45146 32FJessica LennonVirginia Beach VA 12000:45:267900:03:556503:03:471600:01:292001:51:16 05:45:52 
4673 26FSarah StehouwerNew York NY 6900:39:1812600:05:167503:07:0810900:03:062101:51:39 05:46:25 
47153 33FJodi HustonReston VA 12900:46:347400:03:486803:04:573200:01:421801:50:43 05:47:43 
48345 43FMelissa UpchurchChurch Road VA 7000:39:2012000:04:583802:54:375600:02:045702:07:12 05:48:09 
49418 47FJulie KennedyAlexandria VA 10400:42:317600:03:515503:01:506300:02:073701:59:11 05:49:28 
50340 43FEmily ArmstrongRockville MD 11000:43:125500:03:205603:01:575700:02:044101:59:58 05:50:29 
51242 39FDanielle SantucciAshburn VA 4200:36:5813000:05:206103:03:108200:02:335202:03:40 05:51:39 
5283 29FBrigid McEvillySpringfield VA 6500:39:024400:03:068603:11:219000:02:394302:00:55 05:57:02 
53470 52FCecelia KirkmanStafford VA 4000:36:484200:03:036703:04:456100:02:076402:10:28 05:57:09 
54323 40FKeri Ann TatuskoWashington DC 8100:40:166900:03:417903:08:108400:02:365002:02:45 05:57:26 
5538 21FSarah AbbottBlacksburg VA 2100:33:10300:02:059103:12:16100:00:396202:09:49 05:57:57 
56152 33FErin FererNewport News VA 600:31:114800:03:096203:03:244900:01:578802:21:05 06:00:43 
5772 26FRachel DolanWashington DC 2500:33:363200:02:497803:08:042800:01:387802:14:46 06:00:52 
58224 35FFlora AraboWashington DC 6000:38:387100:03:436903:05:131900:01:307002:12:19 06:01:21 
5976 27FJamie WaterhouseArlington VA 13700:48:069500:04:214502:58:0712500:04:065502:06:48 06:01:26 
60332 42FJoella BakerHarmony PA 2900:35:071900:02:329203:13:331000:01:225402:04:5800:04:0006:01:31 
61326 41FSarah MatejowskyCary NC 9600:41:528200:04:006403:03:456000:02:066502:10:48 06:02:29 
PlaceBibCoAgSNAMEcity/stateDQRankSWIMRankT1RankBIKERankT2RankRUNPENALTYTIMEDQ
62149 32FMaria MazzilloApex NC 700:31:232900:02:457203:05:431700:01:299402:23:28 06:04:45 
63229 36FChristy MillerCary NC 13300:47:279600:04:234002:55:347900:02:286602:10:5700:04:0006:04:46 
64413 46FLori LambMidlothian VA 4800:37:293000:02:465703:02:0510600:02:568602:20:43 06:05:56 
65468 51FShirley WoodwardArlington VA 10200:42:2211000:04:436303:03:369800:02:457202:12:48 06:06:11 
66148 32FLaura MapleFredericksburg VA 13400:47:4012200:05:084402:57:392000:01:317602:14:20 06:06:16 
67411 46FJami Callahan-BrillHampton VA 5300:37:395900:03:278903:12:113600:01:457102:12:44 06:07:44 
68144 32FSarah EdwardsWashington DC 2000:33:0912800:05:1910003:17:571800:01:296702:11:14 06:09:06 
69491 55FLaurie O'ConnorWake Forest NC 14800:51:438400:04:025403:01:0110200:02:536002:09:42 06:09:19 
70235 38FSandra CepedaRockville MD 1400:32:4810800:04:419703:16:267100:02:187702:14:31 06:10:43 
71344 43FMichelle HorvathGreensboro NC 10000:42:179700:04:234602:58:173800:01:459902:25:17 06:11:58 
7228 19FJennifer MooreBurke VA 11800:45:0414400:06:4110203:19:3311400:03:193401:57:44 06:12:20 
73156 33FElaine WongGaithersburg MD 12100:45:403100:02:474802:58:545000:01:588402:19:2000:04:0006:12:38 
74492 55FSharon RodierNorfolk VA 12300:45:4813600:05:417003:05:1910500:02:557402:13:17 06:12:59 
75238 38FAshley NortonMcLean VA 8000:40:065800:03:269403:15:136500:02:137302:13:06 06:14:03 
76425 49FMandana MortazaviLeesburg VA 14300:48:3314900:07:2111303:24:1312100:03:472201:52:23 06:16:14 
77336 42FCris HowardReston VA 8800:41:094700:03:079803:17:222400:01:358102:15:55 06:19:05 
78530A43FMecca AdamsChesapeake VA 10700:43:068800:04:108003:10:027000:02:179002:21:29 06:21:03 
7985 29FHolly TompkinsArlington VA 8500:40:423900:03:008403:11:137400:02:219502:24:25 06:21:38 
8080 28FRenee RysiewiczChester VA 10900:43:095000:03:1210103:18:537500:02:237502:14:14 06:21:50 
81160 34FRebecca HoyleWayne PA 14900:51:4811600:04:557103:05:2411200:03:158202:17:17 06:22:39 
82349 44FJoyce JonesWashington DC 11900:45:105300:03:148103:10:245100:02:009302:22:43 06:23:29 
83151 33FCarrie AndersonWashington DC     8803:11:4711000:03:088702:21:03 06:24:38 
84423 48FStephanie FelberElgin IL 4100:36:576000:03:298203:10:524300:01:4911002:32:28 06:25:33 
85422 48FLeah CoughlinCentreville VA 13600:47:5714100:06:229903:17:2311800:03:316802:11:21 06:26:33 
86467 51FCynthia RevesmanHerndon VA 7100:39:2713300:05:2611003:23:0412400:03:577902:14:59 06:26:51 
87408 45FAmy GruverLexington Park MD 11200:43:409400:04:219503:15:4610700:02:598902:21:27 06:28:10 
88225 35FKathleen YoungChevy Chase MD 12400:46:137000:03:4212403:27:2212200:03:485802:07:15 06:28:18 
89533A34FChristina HoggattArlington VA 7500:39:425100:03:137403:06:229600:02:4311702:36:41 06:28:40 
90539NF29FAlyssa LindseyBaltimore MD 14200:48:229100:04:1213103:32:556400:02:084402:01:24 06:28:59 
91239 38FSarah PeterAshburn VA 15300:52:588900:04:1111103:23:2911600:03:265602:06:51 06:30:54 
92331 41FKristin SwiftSt Marys City MD 13500:47:5210700:04:3912203:26:4911900:03:316102:09:44 06:32:34 
PlaceBibCoAgSNAMEcity/stateDQRankSWIMRankT1RankBIKERankT2RankRUNPENALTYTIMEDQ
93324 41FShellie GruberRaleigh NC 7800:40:055700:03:2510303:19:589700:02:4410202:27:26 06:33:36 
9427 18FMadeleine GaffaneyCary NC 3700:36:317700:03:5110803:22:291200:01:2310702:29:58 06:34:10 
95157 34FKelly DwyerVirgina Beach VA 7600:39:4910100:04:278703:11:239300:02:4111602:35:59 06:34:17 
96236 38FNicole HopkinsViriginia Beach VA 3500:36:2411900:04:5810603:21:5510000:02:4710602:28:35 06:34:37 
97421 48FLaura ByrdWoodbine MD 3600:36:3015300:07:5811603:25:0012600:04:149102:21:48 06:35:29 
98231 37FMichelle HartVirginia Beach VA 8200:40:249300:04:1910903:22:3510100:02:5110102:26:41 06:36:47 
99466 51FMaggie CrnicArlington VA 6200:38:519900:04:2512103:26:0710400:02:559802:25:13 06:37:29 
100137 31FSarah KuchinosOdenton MD 9100:41:254600:03:078503:11:169400:02:4212002:43:13 06:41:40 
101535 44FStephanie BaldanziArlington VA 5700:38:3013200:05:2610503:20:5911500:03:2511202:33:49 06:42:06 
102469 52FKaren BennettReston VA 11100:43:2312700:05:1912503:28:5013200:05:148502:20:23 06:43:07 
103338 42FCorky SturtevantSpringfield VA 11700:45:0414300:06:3813403:33:436600:02:145102:03:3600:12:0006:43:13 
104233 37FDorothy WiseSuffolk VA 8400:40:3315000:07:2111403:24:2012300:03:5210302:27:39 06:43:43 
105529A47FJane GilpinBethesda MD 7700:39:507300:03:4813803:35:142100:01:329602:24:35 06:44:58 
10679 28FJessica LindbergSterling VA 11500:44:1011800:04:5711903:25:484600:01:5510402:28:15 06:45:03 
107243 39FLeigh Ann SchultzAlexandria VA 10100:42:2115100:07:247603:07:1511100:03:1212402:46:29 06:46:39 
10878 28FCaroline HerndonLynchburg VA 6700:39:118100:03:579003:12:1612900:04:4113002:52:22 06:52:25 
10926 18FAmy AskewLeesburg VA 3800:36:3515700:14:2412703:30:2713000:04:5010502:28:15 06:54:30 
110493 57FCatherine LeeCulpeper VA 7900:40:059800:04:2410703:22:278600:02:3812302:46:03 06:55:35 
111346 43FTami YoshikamiBethesda MD 8300:40:259200:04:1511203:23:519200:02:4012202:44:47 06:55:56 
11218MF48FAmanda PrebleCentreville VA 15200:52:5212100:05:0111703:25:338800:02:3910802:30:07 06:56:11 
113159 34FMeredith GeierIrvington VA 15100:52:2311200:04:4813703:34:536800:02:179202:22:36 06:56:55 
114348 44FStephanie DejohnSpringfield VA 12700:46:2213100:05:2412803:30:419500:02:4210902:32:17 06:57:24 
115531A41FTara PrieurPenn Laird VA 9900:42:138700:04:1014703:46:114700:01:559702:24:38 06:59:06 
116650 50FKristina AmentAlexandria VA 14600:49:1715400:08:0710403:20:428500:02:3811502:34:4300:04:0006:59:25 
117537NF32FJacqueline Garonzik WangBaltimore MD 13000:46:397500:03:5114103:39:3912700:04:1710002:26:04 07:00:28 
118329 41FAileen RoderWashington DC 12200:45:4110300:04:3113503:33:498700:02:3911302:34:02 07:00:39 
119462 50FKatherine HahnAlexandria VA 12600:46:199000:04:1112603:29:418000:02:2911802:38:16 07:00:54 
120138 31FSallie NifongHigh Point NC 5400:38:0110000:04:2713903:36:589900:02:4711902:40:17 07:02:28 
121538NF29FErin CoughlinNorth Bethesda MD 14000:48:1513900:06:0215003:48:599100:02:408302:18:20 07:04:15 
12240 23FCourtney DaczkowskiSterling VA 1600:33:0012400:05:1214503:42:325300:02:0112102:43:33 07:06:17 
123426 49FDana ThomasWashington DC 12800:46:2515600:08:1513603:33:5213600:06:1911402:34:32 07:09:20 
PlaceBibCoAgSNAMEcity/stateDQRankSWIMRankT1RankBIKERankT2RankRUNPENALTYTIMEDQ
124495 67FCarolyn RiceBurke VA 15800:56:2611500:04:5412903:31:3713100:05:0211102:33:08 07:11:05 
125540NF29FLiliana VelaBaltimore MD 15901:06:518500:04:0714603:43:067300:02:208002:15:41 07:12:03 
126230 36FHolly OlsonRichmond VA 14500:48:4311400:04:5212303:27:0712000:03:3412802:49:37 07:13:51 
127335 42FAna GelabertFairfax VA 12500:46:1514000:06:2013303:33:3710800:03:0212702:48:46 07:17:58 
128534A33FPatricia ReaganAshland VA 9700:42:107800:03:5314803:47:165400:02:0212902:52:06 07:27:26 
129337 42FMichele RiveraCary NC 10500:42:3613800:06:029603:16:2611300:03:1813303:20:20 07:28:40 
130532A37FJessica SandleWashington DC 13900:48:146200:03:3414903:48:305800:02:0412602:47:15 07:29:36 
131465 51FDeborah ChamberlinAlexandria VA 13100:46:5312500:05:1514003:38:5412800:04:3813203:15:40 07:51:18 
132463 50FTish HalleGaithersburg MD 14100:48:2015200:07:2415804:15:128300:02:3512502:46:53 08:00:23 
133472 53FMaria PujolsGreensboro NC 15400:55:0914800:07:1815103:49:3213400:05:2813103:05:11 08:02:35 
134415 46FMichele PotterGermantown MD 9200:41:348300:04:013502:53:077800:02:27  00:04:00  
135560BF49FDonna SumptionArlington VA 14700:51:0911300:04:5211503:24:29    00:04:00  
136566BF42FPatty ShoafDurham NC 4700:37:19500:02:09202:27:42    00:04:00  
137569BF39FJacqueline FranchettiWashington DC 10600:42:4714700:07:1314203:41:14    00:04:00  
138571BF37FJanet ChowAshburn VA 10300:42:2813400:05:2711803:25:45    00:04:00  
139625BF43FCatherine AlbrightRoanoke VA 3200:35:206500:03:374702:58:33    00:04:00  
140147 32FStephanie MaltzWashington DC 7400:39:3810200:04:2915604:03:3911700:03:28  DNF  
141558BF52FLori WhitehandFalls Church VA 6800:39:1613500:05:37102:16:22    DNF  
142417 47FShannon BairdFalls Church VA  DNF        DNF  
143352 44FBlake StrasserBrooklyn NY 14400:48:3810500:04:3212003:25:57    DNF  
144327 41FDeborah McKennaNorth Potomac MD 9500:41:5112900:05:1914403:42:1713300:05:16  DNF  
145416 46FJennifer RentchWashington DC 3300:36:031800:02:27      DNF  
146471 53FNancy KeithleyManassas VA 15600:55:3814200:06:35      DNF  
147573BF28FEllen WexlerWashington DC 6400:38:593600:02:54702:35:20       
148565BF45FMerle NilkWashington DC 6600:39:056300:03:342402:48:07       
149555BF56FLynn BradshawRoanoke VA 5200:37:367200:03:474302:57:12       
150412BF46FMary Lynn HansenWoodstock MD 8700:40:554000:03:005303:00:32       
151568BF41FJohanna TaddikenArlington VA 5000:37:336400:03:377703:07:37       
152561BF48FAngela CardenasRoanoke VA 9300:41:3910600:04:348303:11:04       
153562BF46FNemo (Helen) BrauchNags Head NC 10800:43:0611100:04:459303:14:38       
154142BF32FHina AyubArlington VA 15700:56:256600:03:3813003:31:48       
PlaceBibCoAgSNAMEcity/stateDQRankSWIMRankT1RankBIKERankT2RankRUNPENALTYTIMEDQ
155570BF39FJennifer WeisbergerRichmond VA 13800:48:1212300:05:1213203:33:03       
156563BF46FMaureen WilliamsAlexandria VA 11400:43:454900:03:1014303:42:13       
157475BF54FCaroline HemenwayHerndon VA 15500:55:3214500:06:4615204:01:27       
158564BF45FSharon FrankAlexandria VA 15000:52:1714600:07:0515304:03:32       
159557BF53FKathy RiceFalls Church VA 4600:37:1315900:22:0615404:03:34       
160559BF50FMarianne VannattaAlexandria VA 6300:38:5315800:20:2815504:03:34       
161572BF29FRachel PeckArlington VA 9800:42:1215500:08:1215704:05:18       

** Results are for the private use of participants and are the Intellectual Property of Set Up Events. Unauthorized use of these results is prohibited.